Time;durP1;ratioP1;P1;durP2;ratioP2;P2;SDS_P1;SDS_P2;PMS_P1;PMS_P2;Temp;Humidity;BMP_temperature;BMP_pressure;BME280_temperature;BME280_humidity;BME280_pressure;Samples;Min_cycle;Max_cycle;Signal;HPM_P1;HPM_P2
2022/05/30 00:01:22;;;;;;;2.50;1.67;;;;;;;;;;5027594;28;20188;-51
2022/05/30 00:03:50;;;;;;;2.90;1.80;;;;;;;;;;5009430;28;21688;-50
2022/05/30 00:06:18;;;;;;;2.97;1.60;;;;;;;;;;5026985;28;20813;-50
2022/05/30 00:08:44;;;;;;;4.37;2.07;;;;;;;;;;5026868;28;20198;-51
2022/05/30 00:11:12;;;;;;;4.27;1.90;;;;;;;;;;5020933;28;20220;-50
2022/05/30 00:13:38;;;;;;;1.83;1.70;;;;;;;;;;5010981;28;20601;-50
2022/05/30 00:16:06;;;;;;;1.97;1.47;;;;;;;;;;4993846;28;20265;-51
2022/05/30 00:18:32;;;;;;;2.80;1.80;;;;;;;;;;5010450;28;20247;-52
2022/05/30 00:20:58;;;;;;;3.73;1.80;;;;;;;;;;5031381;28;20255;-51
2022/05/30 00:23:24;;;;;;;3.37;1.80;;;;;;;;;;4998214;28;20206;-51
2022/05/30 00:25:50;;;;;;;2.67;2.00;;;;;;;;;;5013378;28;20592;-51
2022/05/30 00:28:16;;;;;;;4.30;2.03;;;;;;;;;;5030108;28;20631;-51
2022/05/30 00:30:43;;;;;;;2.37;1.87;;;;;;;;;;5030074;28;20608;-51
2022/05/30 00:33:10;;;;;;;2.20;1.43;;;;;;;;;;5011866;28;20373;-51
2022/05/30 00:35:36;;;;;;;3.43;1.87;;;;;;;;;;5024910;28;20261;-50
2022/05/30 00:38:03;;;;;;;1.70;1.60;;;;;;;;;;5035126;28;20184;-51
2022/05/30 00:40:29;;;;;;;2.27;1.60;;;;;;;;;;5010427;28;20255;-51
2022/05/30 00:42:55;;;;;;;5.07;1.80;;;;;;;;;;5030270;28;20655;-50
2022/05/30 00:45:21;;;;;;;1.90;1.63;;;;;;;;;;5023451;28;20204;-51
2022/05/30 00:47:48;;;;;;;2.50;1.90;;;;;;;;;;5010646;28;20490;-51
2022/05/30 00:50:14;;;;;;;1.90;1.70;;;;;;;;;;5028213;28;20251;-50
2022/05/30 00:52:42;;;;;;;4.73;1.60;;;;;;;;;;5030477;28;20547;-50
2022/05/30 00:55:10;;;;;;;3.30;1.83;;;;;;;;;;5013166;28;20525;-50
2022/05/30 00:57:38;;;;;;;3.37;1.63;;;;;;;;;;5039951;28;20502;-51
2022/05/30 01:00:07;;;;;;;3.20;1.60;;;;;;;;;;5024833;28;20596;-51
2022/05/30 01:02:34;;;;;;;3.07;1.80;;;;;;;;;;5026792;28;20236;-51
2022/05/30 01:07:50;;;;;;;1.93;1.60;;;;;;;;;;5027456;28;20201;-51
2022/05/30 01:10:19;;;;;;;2.40;1.50;;;;;;;;;;5018330;28;20195;-50
2022/05/30 01:12:51;;;;;;;4.97;2.13;;;;;;;;;;5022362;28;20320;-50
2022/05/30 01:15:18;;;;;;;5.37;2.10;;;;;;;;;;5008393;28;20197;-50
2022/05/30 01:17:48;;;;;;;3.10;1.60;;;;;;;;;;5040129;28;20541;-51
2022/05/30 01:20:37;;;;;;;3.20;1.63;;;;;;;;;;5028592;28;20608;-50
2022/05/30 01:23:06;;;;;;;3.53;1.80;;;;;;;;;;4989382;28;20205;-51
2022/05/30 01:26:01;;;;;;;3.37;1.73;;;;;;;;;;5026571;28;20711;-50
2022/05/30 01:28:27;;;;;;;2.00;1.50;;;;;;;;;;5013945;28;20201;-50
2022/05/30 01:30:54;;;;;;;3.13;1.80;;;;;;;;;;5027896;28;20170;-50
2022/05/30 01:33:20;;;;;;;3.57;1.80;;;;;;;;;;5009926;28;20201;-51
2022/05/30 01:35:46;;;;;;;2.93;1.90;;;;;;;;;;5026839;28;20216;-51
2022/05/30 01:38:13;;;;;;;8.00;1.83;;;;;;;;;;5012594;28;20192;-50
2022/05/30 01:40:39;;;;;;;3.13;1.57;;;;;;;;;;5008643;28;20709;-50
2022/05/30 01:43:05;;;;;;;1.73;1.60;;;;;;;;;;5027676;28;20206;-51
2022/05/30 01:45:31;;;;;;;1.63;1.30;;;;;;;;;;5026735;28;20709;-51
2022/05/30 01:47:58;;;;;;;1.67;1.50;;;;;;;;;;5010692;28;20216;-51
2022/05/30 01:50:25;;;;;;;2.80;1.93;;;;;;;;;;5019076;28;20309;-50
2022/05/30 01:52:51;;;;;;;3.40;1.73;;;;;;;;;;5020366;28;20273;-50
2022/05/30 01:55:17;;;;;;;2.20;2.00;;;;;;;;;;5027425;28;20979;-50
2022/05/30 01:57:44;;;;;;;3.23;1.97;;;;;;;;;;5026504;28;20178;-52
2022/05/30 02:00:13;;;;;;;1.97;1.70;;;;;;;;;;5028478;28;20182;-51
2022/05/30 02:02:39;;;;;;;4.67;1.83;;;;;;;;;;5034566;28;20205;-50
2022/05/30 02:05:06;;;;;;;3.47;1.70;;;;;;;;;;5018281;28;20193;-51
2022/05/30 02:07:32;;;;;;;2.20;1.90;;;;;;;;;;5028085;28;20182;-51
2022/05/30 02:09:58;;;;;;;2.00;1.40;;;;;;;;;;5021724;28;20309;-52
2022/05/30 02:12:24;;;;;;;2.73;1.90;;;;;;;;;;5022459;28;20316;-51
2022/05/30 02:14:50;;;;;;;2.57;1.70;;;;;;;;;;5017282;28;20186;-52
2022/05/30 02:17:17;;;;;;;4.03;2.53;;;;;;;;;;5010554;28;20245;-52
2022/05/30 02:19:44;;;;;;;3.33;2.00;;;;;;;;;;5023614;28;20190;-52
2022/05/30 02:22:12;;;;;;;4.03;2.03;;;;;;;;;;5025008;28;20300;-52
2022/05/30 02:24:38;;;;;;;2.03;1.57;;;;;;;;;;5018866;28;20664;-51
2022/05/30 02:27:06;;;;;;;2.17;1.73;;;;;;;;;;5021974;28;20182;-52
2022/05/30 02:29:32;;;;;;;4.00;1.83;;;;;;;;;;5004010;28;20190;-51
2022/05/30 02:32:01;;;;;;;2.63;1.70;;;;;;;;;;5021684;28;20182;-52
2022/05/30 02:37:13;;;;;;;3.00;2.13;;;;;;;;;;5026302;28;20195;-51
2022/05/30 02:39:39;;;;;;;3.13;1.50;;;;;;;;;;5024334;28;20256;-51
2022/05/30 02:42:06;;;;;;;1.87;1.70;;;;;;;;;;5027116;28;20596;-50
2022/05/30 02:44:32;;;;;;;2.33;1.77;;;;;;;;;;5019397;28;20188;-51
2022/05/30 02:46:58;;;;;;;4.00;1.80;;;;;;;;;;5004603;28;20189;-50
2022/05/30 02:49:25;;;;;;;3.20;1.83;;;;;;;;;;5015900;28;20202;-51
2022/05/30 02:51:51;;;;;;;3.70;1.90;;;;;;;;;;5005754;28;20264;-51
2022/05/30 02:54:18;;;;;;;4.17;2.07;;;;;;;;;;5007130;28;20218;-50
2022/05/30 02:56:49;;;;;;;5.63;2.07;;;;;;;;;;5008398;28;20599;-51
2022/05/30 02:59:15;;;;;;;2.20;1.70;;;;;;;;;;5006401;28;20272;-50
2022/05/30 03:01:41;;;;;;;3.73;1.80;;;;;;;;;;5002105;28;20277;-50
2022/05/30 03:04:08;;;;;;;3.53;2.80;;;;;;;;;;5005618;28;20697;-52
2022/05/30 03:06:35;;;;;;;3.67;1.90;;;;;;;;;;5002374;28;20593;-50
2022/05/30 03:09:01;;;;;;;3.00;1.90;;;;;;;;;;5025053;28;20293;-50
2022/05/30 03:11:28;;;;;;;3.60;1.90;;;;;;;;;;5023684;28;20218;-49
2022/05/30 03:13:54;;;;;;;1.73;1.60;;;;;;;;;;5023801;28;20214;-50
2022/05/30 03:16:20;;;;;;;4.37;2.47;;;;;;;;;;5016400;28;20254;-50
2022/05/30 03:18:46;;;;;;;4.90;1.80;;;;;;;;;;5008239;28;20193;-50
2022/05/30 03:21:13;;;;;;;3.67;1.83;;;;;;;;;;5025075;28;20198;-48
2022/05/30 03:23:39;;;;;;;2.37;1.90;;;;;;;;;;5007865;28;20198;-50
2022/05/30 03:26:06;;;;;;;3.83;2.07;;;;;;;;;;5007748;28;20186;-50
2022/05/30 03:28:32;;;;;;;4.10;1.87;;;;;;;;;;5021818;28;20688;-49
2022/05/30 03:30:59;;;;;;;2.33;1.60;;;;;;;;;;5023814;28;20178;-48
2022/05/30 03:33:25;;;;;;;2.27;2.07;;;;;;;;;;5006072;28;20292;-49
2022/05/30 03:35:51;;;;;;;5.83;2.13;;;;;;;;;;5015967;28;20630;-50
2022/05/30 03:38:18;;;;;;;3.77;1.70;;;;;;;;;;5005993;28;20201;-49
2022/05/30 03:40:44;;;;;;;2.93;1.87;;;;;;;;;;4996478;28;20186;-49
2022/05/30 03:43:11;;;;;;;3.60;2.20;;;;;;;;;;5004756;28;20206;-49
2022/05/30 03:45:38;;;;;;;3.73;1.70;;;;;;;;;;5006749;28;20190;-49
2022/05/30 03:48:04;;;;;;;2.47;1.70;;;;;;;;;;5023239;28;20771;-49
2022/05/30 03:50:31;;;;;;;1.90;1.70;;;;;;;;;;5024009;28;20201;-49
2022/05/30 03:53:04;;;;;;;4.50;2.10;;;;;;;;;;5023823;28;20562;-49
2022/05/30 03:55:31;;;;;;;3.53;2.00;;;;;;;;;;5014500;28;20609;-49
2022/05/30 03:57:57;;;;;;;2.67;1.63;;;;;;;;;;5022096;28;20609;-51
2022/05/30 04:00:24;;;;;;;6.10;2.70;;;;;;;;;;5003349;28;20521;-50
2022/05/30 04:02:50;;;;;;;3.67;2.00;;;;;;;;;;5020574;28;20220;-52
2022/05/30 04:05:20;;;;;;;3.93;3.20;;;;;;;;;;5015585;28;20573;-50
2022/05/30 04:07:46;;;;;;;4.57;1.87;;;;;;;;;;5009500;28;20196;-50
2022/05/30 04:10:13;;;;;;;3.17;1.57;;;;;;;;;;4989170;28;20198;-50
2022/05/30 04:12:39;;;;;;;1.80;1.50;;;;;;;;;;5023133;28;20226;-50
2022/05/30 04:15:07;;;;;;;2.90;1.90;;;;;;;;;;5010259;28;20198;-51
2022/05/30 04:17:34;;;;;;;2.03;1.80;;;;;;;;;;5023045;28;20188;-50
2022/05/30 04:20:00;;;;;;;2.77;2.00;;;;;;;;;;4998503;28;20218;-50
2022/05/30 04:22:27;;;;;;;2.23;1.80;;;;;;;;;;5002685;28;20595;-50
2022/05/30 04:24:54;;;;;;;3.90;2.00;;;;;;;;;;5008041;28;20544;-50
2022/05/30 04:27:24;;;;;;;2.70;2.43;;;;;;;;;;5022010;28;20224;-50
2022/05/30 04:29:50;;;;;;;3.67;3.03;;;;;;;;;;5005571;28;20403;-50
2022/05/30 04:32:17;;;;;;;3.20;1.83;;;;;;;;;;5023256;28;20635;-50
2022/05/30 04:34:44;;;;;;;3.30;2.03;;;;;;;;;;5023763;28;20181;-49
2022/05/30 04:37:10;;;;;;;2.40;1.67;;;;;;;;;;5025105;28;20281;-50
2022/05/30 04:39:36;;;;;;;6.17;2.33;;;;;;;;;;5018535;28;20178;-52
2022/05/30 04:42:02;;;;;;;5.33;1.97;;;;;;;;;;5027729;28;20429;-51
2022/05/30 04:44:28;;;;;;;2.17;1.63;;;;;;;;;;5023292;28;20659;-50
2022/05/30 04:46:55;;;;;;;3.37;2.00;;;;;;;;;;5022287;28;20186;-50
2022/05/30 04:49:22;;;;;;;6.93;2.13;;;;;;;;;;5025604;28;20623;-51
2022/05/30 04:51:48;;;;;;;3.60;1.70;;;;;;;;;;5008435;28;20228;-50
2022/05/30 04:54:15;;;;;;;3.00;2.10;;;;;;;;;;5025343;28;20187;-50
2022/05/30 04:56:41;;;;;;;1.90;1.57;;;;;;;;;;5028580;28;20228;-51
2022/05/30 04:59:08;;;;;;;2.17;1.90;;;;;;;;;;5009246;28;20190;-51
2022/05/30 05:01:34;;;;;;;4.77;2.00;;;;;;;;;;5028169;28;20205;-50
2022/05/30 05:04:00;;;;;;;3.30;1.70;;;;;;;;;;5020579;28;20194;-50
2022/05/30 05:06:26;;;;;;;2.30;1.77;;;;;;;;;;5023680;28;20186;-50
2022/05/30 05:08:55;;;;;;;3.57;1.80;;;;;;;;;;5019820;28;20208;-50
2022/05/30 05:11:29;;;;;;;3.90;2.03;;;;;;;;;;5018597;28;20308;-50
2022/05/30 05:13:55;;;;;;;6.13;1.90;;;;;;;;;;5002507;28;20612;-51
2022/05/30 05:16:23;;;;;;;3.30;1.60;;;;;;;;;;5022918;28;20183;-52
2022/05/30 05:18:50;;;;;;;2.77;1.87;;;;;;;;;;5005195;28;20174;-50
2022/05/30 05:21:17;;;;;;;4.00;2.03;;;;;;;;;;5023811;28;20232;-50
2022/05/30 05:23:43;;;;;;;3.63;1.63;;;;;;;;;;5018900;28;20310;-51
2022/05/30 05:26:09;;;;;;;5.73;2.23;;;;;;;;;;5026286;28;20639;-50
2022/05/30 05:28:36;;;;;;;2.93;1.90;;;;;;;;;;5024825;28;20214;-50
2022/05/30 05:31:02;;;;;;;3.87;2.17;;;;;;;;;;5024106;28;20639;-50
2022/05/30 05:33:28;;;;;;;4.10;2.00;;;;;;;;;;4994762;28;20182;-50
2022/05/30 05:35:54;;;;;;;5.03;2.27;;;;;;;;;;5007246;28;20190;-50
2022/05/30 05:38:20;;;;;;;3.33;1.67;;;;;;;;;;5019728;28;20276;-50
2022/05/30 05:40:46;;;;;;;4.70;1.80;;;;;;;;;;5018439;28;20190;-51
2022/05/30 05:43:13;;;;;;;3.13;1.50;;;;;;;;;;5008687;28;20224;-50
2022/05/30 05:45:40;;;;;;;3.07;1.63;;;;;;;;;;5006137;28;20182;-51
2022/05/30 05:48:07;;;;;;;4.57;2.07;;;;;;;;;;5018100;28;20345;-51
2022/05/30 05:50:34;;;;;;;3.73;2.47;;;;;;;;;;4995948;28;20265;-50
2022/05/30 05:53:00;;;;;;;6.67;2.37;;;;;;;;;;5035380;28;20180;-51
2022/05/30 05:55:27;;;;;;;3.07;1.90;;;;;;;;;;5014180;28;20585;-50
2022/05/30 05:57:53;;;;;;;4.07;2.20;;;;;;;;;;5025041;28;20186;-49
2022/05/30 06:00:19;;;;;;;4.63;2.03;;;;;;;;;;5004765;28;20186;-50
2022/05/30 06:02:45;;;;;;;5.13;2.10;;;;;;;;;;5024765;28;20209;-48
2022/05/30 06:05:11;;;;;;;3.07;1.40;;;;;;;;;;5021340;28;20234;-50
2022/05/30 06:07:38;;;;;;;4.07;2.07;;;;;;;;;;5005273;28;20764;-50
2022/05/30 06:10:05;;;;;;;2.77;1.70;;;;;;;;;;5021331;28;20209;-50
2022/05/30 06:12:34;;;;;;;1.90;1.67;;;;;;;;;;5023606;28;20248;-50
2022/05/30 06:15:00;;;;;;;5.60;2.10;;;;;;;;;;5018743;28;20255;-50
2022/05/30 06:17:26;;;;;;;3.13;1.73;;;;;;;;;;5020081;28;20602;-50
2022/05/30 06:19:52;;;;;;;3.60;1.70;;;;;;;;;;5021700;28;20252;-51
2022/05/30 06:22:18;;;;;;;4.73;2.23;;;;;;;;;;5014775;28;20263;-51
2022/05/30 06:24:44;;;;;;;3.47;1.80;;;;;;;;;;5021896;28;20181;-51
2022/05/30 06:27:15;;;;;;;4.43;2.30;;;;;;;;;;5021402;28;20189;-51
2022/05/30 06:29:42;;;;;;;4.20;2.30;;;;;;;;;;5011234;28;20182;-51
2022/05/30 06:32:08;;;;;;;4.50;2.33;;;;;;;;;;5013957;28;20644;-51
2022/05/30 06:34:34;;;;;;;3.47;1.83;;;;;;;;;;5017766;28;20186;-52
2022/05/30 06:37:00;;;;;;;5.07;2.37;;;;;;;;;;5019297;28;20190;-52
2022/05/30 06:39:27;;;;;;;3.20;2.03;;;;;;;;;;5018720;28;20550;-52
2022/05/30 06:41:54;;;;;;;4.47;2.00;;;;;;;;;;5018183;28;20176;-52
2022/05/30 06:44:20;;;;;;;4.97;2.40;;;;;;;;;;5017617;28;20262;-53
2022/05/30 06:46:46;;;;;;;3.23;1.93;;;;;;;;;;4993209;28;20186;-52
2022/05/30 06:49:13;;;;;;;5.03;2.50;;;;;;;;;;5004411;28;20733;-51
2022/05/30 06:51:41;;;;;;;5.57;2.10;;;;;;;;;;5003864;28;20210;-52
2022/05/30 06:54:08;;;;;;;3.33;2.15;;;;;;;;;;5022001;28;20441;-52
2022/05/30 06:56:35;;;;;;;4.07;2.20;;;;;;;;;;5023282;28;20178;-52
2022/05/30 06:59:02;;;;;;;6.73;2.50;;;;;;;;;;5020285;28;20288;-53
2022/05/30 07:01:32;;;;;;;4.03;2.53;;;;;;;;;;5012521;28;20763;-51
2022/05/30 07:04:02;;;;;;;5.80;2.20;;;;;;;;;;5018152;28;20201;-53
2022/05/30 07:06:30;;;;;;;3.67;1.93;;;;;;;;;;5002289;28;20265;-51
2022/05/30 07:08:56;;;;;;;4.00;2.13;;;;;;;;;;5003511;28;20186;-50
2022/05/30 07:11:23;;;;;;;6.47;2.27;;;;;;;;;;5020047;28;20295;-49
2022/05/30 07:13:49;;;;;;;4.63;2.83;;;;;;;;;;5020819;28;20182;-51
2022/05/30 07:16:15;;;;;;;5.50;2.87;;;;;;;;;;5021014;28;20189;-51
2022/05/30 07:18:43;;;;;;;6.13;2.50;;;;;;;;;;5006030;28;20196;-51
2022/05/30 07:21:10;;;;;;;6.03;2.80;;;;;;;;;;5018301;28;20667;-50
2022/05/30 07:23:37;;;;;;;6.20;3.00;;;;;;;;;;5024086;28;20236;-50
2022/05/30 07:26:05;;;;;;;7.83;3.30;;;;;;;;;;5005245;28;20239;-52
2022/05/30 07:28:34;;;;;;;6.20;3.07;;;;;;;;;;5020974;28;20232;-49
2022/05/30 07:31:04;;;;;;;6.60;3.40;;;;;;;;;;5017576;28;20197;-50
2022/05/30 07:33:31;;;;;;;5.83;3.17;;;;;;;;;;5007458;28;20553;-48
2022/05/30 07:35:57;;;;;;;4.37;2.93;;;;;;;;;;5003229;28;20243;-49
2022/05/30 07:38:23;;;;;;;7.43;3.63;;;;;;;;;;5021337;28;20185;-49
2022/05/30 07:40:49;;;;;;;5.30;3.37;;;;;;;;;;5024536;28;20197;-50
2022/05/30 07:43:16;;;;;;;7.90;3.13;;;;;;;;;;5002198;28;20541;-49
2022/05/30 07:45:42;;;;;;;9.13;3.97;;;;;;;;;;5003867;28;20284;-50
2022/05/30 07:48:08;;;;;;;6.13;3.73;;;;;;;;;;5019407;28;20178;-49
2022/05/30 07:50:35;;;;;;;4.73;3.33;;;;;;;;;;5024351;28;22223;-50
2022/05/30 07:53:01;;;;;;;4.80;3.03;;;;;;;;;;5022418;28;20174;-49
2022/05/30 07:55:29;;;;;;;6.47;3.40;;;;;;;;;;5001561;28;20493;-47
2022/05/30 07:57:59;;;;;;;6.87;3.20;;;;;;;;;;5017445;28;20256;-51
2022/05/30 08:00:29;;;;;;;5.53;3.13;;;;;;;;;;5001737;28;20186;-51
2022/05/30 08:02:55;;;;;;;7.07;3.87;;;;;;;;;;5004787;28;20695;-51
2022/05/30 08:05:21;;;;;;;4.60;2.90;;;;;;;;;;5017148;28;20197;-51
2022/05/30 08:07:47;;;;;;;5.33;3.03;;;;;;;;;;5016530;28;20182;-52
2022/05/30 08:10:15;;;;;;;7.57;2.93;;;;;;;;;;5020234;28;20198;-51
2022/05/30 08:12:42;;;;;;;5.90;3.37;;;;;;;;;;4988834;28;20241;-51
2022/05/30 08:15:09;;;;;;;8.57;3.17;;;;;;;;;;4988656;28;20234;-52
2022/05/30 08:17:35;;;;;;;4.73;2.77;;;;;;;;;;4991572;28;20270;-51
2022/05/30 08:20:02;;;;;;;4.80;2.20;;;;;;;;;;5006682;28;20502;-50
2022/05/30 08:22:29;;;;;;;4.97;2.27;;;;;;;;;;4989674;28;20248;-51
2022/05/30 08:24:55;;;;;;;4.63;2.07;;;;;;;;;;4987705;28;20182;-50
2022/05/30 08:27:22;;;;;;;6.37;2.37;;;;;;;;;;5003578;28;20217;-51
2022/05/30 08:29:48;;;;;;;3.20;2.20;;;;;;;;;;4986367;28;20182;-51
2022/05/30 08:32:15;;;;;;;4.43;2.00;;;;;;;;;;5006261;28;20182;-51
2022/05/30 08:34:42;;;;;;;5.23;1.87;;;;;;;;;;4989392;28;20269;-50
2022/05/30 08:37:09;;;;;;;2.67;1.60;;;;;;;;;;5008252;28;20192;-52
2022/05/30 08:42:23;;;;;;;4.83;2.07;;;;;;;;;;4980305;28;20260;-52
2022/05/30 08:44:49;;;;;;;3.87;2.23;;;;;;;;;;5003222;28;20489;-51
2022/05/30 08:47:23;;;;;;;4.67;2.17;;;;;;;;;;5007844;28;20591;-51
2022/05/30 08:49:52;;;;;;;5.07;2.37;;;;;;;;;;5001035;28;20278;-47
2022/05/30 08:52:26;;;;;;;3.13;2.00;;;;;;;;;;5004268;28;20209;-50
2022/05/30 08:54:58;;;;;;;3.40;1.80;;;;;;;;;;4988801;28;20187;-48
2022/05/30 08:57:27;;;;;;;4.23;1.73;;;;;;;;;;4988825;28;20670;-50
2022/05/30 09:00:04;;;;;;;3.33;1.90;;;;;;;;;;5000592;28;20269;-49
2022/05/30 09:02:35;;;;;;;2.73;1.70;;;;;;;;;;4981317;28;20774;-50
2022/05/30 09:05:05;;;;;;;5.27;2.80;;;;;;;;;;5001413;28;20236;-49
2022/05/30 09:07:34;;;;;;;4.30;1.77;;;;;;;;;;5003009;28;20194;-49
2022/05/30 09:10:10;;;;;;;5.27;1.57;;;;;;;;;;5006454;28;20614;-49
2022/05/30 09:12:46;;;;;;;4.73;1.67;;;;;;;;;;4990668;28;20230;-49
2022/05/30 09:15:16;;;;;;;2.13;1.63;;;;;;;;;;4979617;28;20193;-49
2022/05/30 09:17:48;;;;;;;2.53;1.57;;;;;;;;;;4991644;28;20619;-48
2022/05/30 09:20:17;;;;;;;4.93;2.23;;;;;;;;;;5007561;28;20544;-50
2022/05/30 09:22:43;;;;;;;2.97;1.53;;;;;;;;;;5007526;28;20202;-50
2022/05/30 09:28:00;;;;;;;4.93;1.97;;;;;;;;;;5006242;28;20218;-52
2022/05/30 09:30:33;;;;;;;4.50;1.70;;;;;;;;;;4988392;28;20178;-49
2022/05/30 09:33:12;;;;;;;2.60;1.90;;;;;;;;;;4992709;28;20218;-50
2022/05/30 09:35:41;;;;;;;1.83;1.40;;;;;;;;;;4989239;28;20209;-49
2022/05/30 09:38:21;;;;;;;5.93;2.20;;;;;;;;;;4992990;28;20282;-50
2022/05/30 09:40:50;;;;;;;3.00;1.70;;;;;;;;;;4987226;28;20183;-50
2022/05/30 09:43:27;;;;;;;5.77;3.17;;;;;;;;;;4997904;28;20285;-51
2022/05/30 09:45:54;;;;;;;3.27;2.00;;;;;;;;;;4981573;28;20186;-52
2022/05/30 09:48:22;;;;;;;3.80;1.90;;;;;;;;;;5003486;28;20305;-50
2022/05/30 09:50:52;;;;;;;1.80;1.60;;;;;;;;;;4980093;28;20191;-50
2022/05/30 09:53:39;;;;;;;4.20;1.73;;;;;;;;;;5009586;28;20186;-50
2022/05/30 09:56:06;;;;;;;3.23;1.60;;;;;;;;;;5005231;28;20182;-51
2022/05/30 09:58:46;;;;;;;4.03;1.70;;;;;;;;;;5005336;28;20191;-50
2022/05/30 10:01:13;;;;;;;3.57;1.87;;;;;;;;;;4985450;28;20193;-51
2022/05/30 10:03:44;;;;;;;4.43;1.80;;;;;;;;;;4989857;28;20226;-49
2022/05/30 10:06:13;;;;;;;1.50;1.40;;;;;;;;;;4988541;28;20186;-49
2022/05/30 10:08:39;;;;;;;1.63;1.53;;;;;;;;;;5006466;28;20223;-49
2022/05/30 10:11:09;;;;;;;2.93;1.60;;;;;;;;;;4985795;28;20230;-52
2022/05/30 10:13:37;;;;;;;3.03;1.37;;;;;;;;;;5002990;28;20186;-51
2022/05/30 10:16:05;;;;;;;2.23;1.50;;;;;;;;;;5005524;28;20182;-50
2022/05/30 10:18:51;;;;;;;2.00;1.50;;;;;;;;;;4987186;28;20199;-51
2022/05/30 10:21:25;;;;;;;1.57;1.20;;;;;;;;;;5005484;28;20199;-51
2022/05/30 10:29:47;;;;;;;1.97;1.40;;;;;;;;;;5000341;28;20261;-52
2022/05/30 10:32:13;;;;;;;1.50;1.40;;;;;;;;;;4987199;28;20343;-51
2022/05/30 10:34:51;;;;;;;3.33;2.10;;;;;;;;;;4990861;28;20740;-53
2022/05/30 10:37:45;;;;;;;4.50;2.03;;;;;;;;;;5002930;28;20619;-51
2022/05/30 10:40:24;;;;;;;4.47;2.23;;;;;;;;;;4987130;28;20184;-50
2022/05/30 10:43:11;;;;;;;4.73;1.83;;;;;;;;;;5002774;28;20719;-50
2022/05/30 10:45:45;;;;;;;3.73;2.27;;;;;;;;;;4945691;28;20249;-52
2022/05/30 10:48:18;;;;;;;3.30;1.70;;;;;;;;;;5006779;28;20372;-50
2022/05/30 10:50:55;;;;;;;3.20;2.27;;;;;;;;;;4986725;28;20186;-50
2022/05/30 10:53:26;;;;;;;1.93;1.63;;;;;;;;;;4988321;28;20248;-50
2022/05/30 10:55:54;;;;;;;4.37;2.33;;;;;;;;;;4988928;28;20387;-51
2022/05/30 10:58:25;;;;;;;2.97;2.07;;;;;;;;;;5001855;28;21238;-51
2022/05/30 11:01:07;;;;;;;1.77;1.60;;;;;;;;;;4983902;28;20197;-50
2022/05/30 11:03:40;;;;;;;3.45;1.85;;;;;;;;;;4968236;28;20426;-50
2022/05/30 11:06:12;;;;;;;4.13;1.90;;;;;;;;;;5003118;28;20502;-52
2022/05/30 11:09:02;;;;;;;3.40;1.80;;;;;;;;;;5004797;28;20529;-49
2022/05/30 11:11:28;;;;;;;2.37;1.67;;;;;;;;;;4993705;28;20706;-50
2022/05/30 11:14:18;;;;;;;4.60;1.90;;;;;;;;;;4992260;28;20182;-50
2022/05/30 11:16:48;;;;;;;3.50;1.60;;;;;;;;;;4936585;28;20248;-50
2022/05/30 11:19:22;;;;;;;1.80;1.70;;;;;;;;;;4973839;28;20167;-52
2022/05/30 11:22:00;;;;;;;2.90;1.50;;;;;;;;;;4993174;28;20620;-50
2022/05/30 11:24:27;;;;;;;3.73;1.70;;;;;;;;;;4997272;28;20216;-49
2022/05/30 11:26:59;;;;;;;1.73;1.63;;;;;;;;;;4982114;28;20200;-50
2022/05/30 11:29:40;;;;;;;2.30;1.43;;;;;;;;;;4989070;28;20660;-49
2022/05/30 11:32:17;;;;;;;2.77;1.37;;;;;;;;;;4986776;28;20201;-50
2022/05/30 11:34:55;;;;;;;2.10;1.53;;;;;;;;;;4987612;28;20248;-50
2022/05/30 11:37:39;;;;;;;2.30;1.93;;;;;;;;;;4984658;28;20181;-49
2022/05/30 11:40:14;;;;;;;3.43;1.70;;;;;;;;;;5005877;28;20197;-50
2022/05/30 11:42:44;;;;;;;1.47;1.37;;;;;;;;;;5021415;28;20604;-51
2022/05/30 11:45:10;;;;;;;3.27;1.57;;;;;;;;;;4995849;28;20277;-50
2022/05/30 11:47:40;;;;;;;2.53;1.87;;;;;;;;;;5010479;28;20208;-51
2022/05/30 11:50:22;;;;;;;3.17;1.80;;;;;;;;;;4992114;28;20174;-50
2022/05/30 11:52:48;;;;;;;3.47;1.80;;;;;;;;;;5011882;28;20220;-50
2022/05/30 11:55:24;;;;;;;3.07;1.60;;;;;;;;;;4984659;28;20190;-51
2022/05/30 11:57:54;;;;;;;4.47;1.80;;;;;;;;;;5004245;28;20532;-49
2022/05/30 12:00:40;;;;;;;3.50;2.23;;;;;;;;;;4987373;28;20189;-50
2022/05/30 12:03:10;;;;;;;3.40;2.03;;;;;;;;;;4973053;28;20264;-49
2022/05/30 12:05:54;;;;;;;2.80;1.83;;;;;;;;;;5003590;28;20233;-51
2022/05/30 12:08:39;;;;;;;3.70;1.70;;;;;;;;;;5014090;28;20679;-50
2022/05/30 12:11:13;;;;;;;3.37;1.67;;;;;;;;;;4994610;28;20229;-50
2022/05/30 12:13:46;;;;;;;2.20;1.70;;;;;;;;;;4985663;28;20185;-50
2022/05/30 12:16:25;;;;;;;1.97;1.80;;;;;;;;;;4983817;28;20568;-49
2022/05/30 12:24:41;;;;;;;2.03;1.93;;;;;;;;;;5001474;28;20419;-49
2022/05/30 12:27:14;;;;;;;2.57;1.80;;;;;;;;;;4985367;28;20211;-50
2022/05/30 12:29:42;;;;;;;3.10;1.40;;;;;;;;;;4989973;28;20649;-51
2022/05/30 12:32:41;;;;;;;4.33;1.80;;;;;;;;;;5002241;28;20506;-51
2022/05/30 12:35:26;;;;;;;2.07;1.40;;;;;;;;;;4993931;28;20797;-49
2022/05/30 12:37:52;;;;;;;2.70;1.90;;;;;;;;;;4998867;28;20188;-49
2022/05/30 12:40:27;;;;;;;1.83;1.60;;;;;;;;;;4995146;28;20277;-49
2022/05/30 12:42:57;;;;;;;2.67;1.73;;;;;;;;;;4999910;28;20210;-50
2022/05/30 12:45:35;;;;;;;2.30;1.60;;;;;;;;;;4982160;28;20187;-50
2022/05/30 12:48:22;;;;;;;2.33;1.30;;;;;;;;;;5001073;28;20306;-51
2022/05/30 12:50:51;;;;;;;2.10;1.90;;;;;;;;;;4969179;28;20190;-51
2022/05/30 12:53:17;;;;;;;1.93;1.47;;;;;;;;;;5000458;28;20616;-50
2022/05/30 12:55:48;;;;;;;2.10;1.90;;;;;;;;;;4986054;28;20186;-50
2022/05/30 12:58:20;;;;;;;1.57;1.47;;;;;;;;;;4980079;28;20269;-50
2022/05/30 13:00:51;;;;;;;3.40;2.03;;;;;;;;;;4974318;28;20677;-49
2022/05/30 13:03:20;;;;;;;2.57;1.67;;;;;;;;;;4989024;28;20213;-50
2022/05/30 13:06:10;;;;;;;2.23;1.77;;;;;;;;;;4988046;28;20353;-50
2022/05/30 13:08:55;;;;;;;2.10;1.70;;;;;;;;;;4989249;28;20190;-49
2022/05/30 13:11:24;;;;;;;1.60;1.47;;;;;;;;;;4983697;28;20289;-50
2022/05/30 13:13:54;;;;;;;3.40;1.60;;;;;;;;;;4988374;28;20190;-51
2022/05/30 13:16:37;;;;;;;1.90;1.40;;;;;;;;;;4983104;28;20571;-51
2022/05/30 13:19:04;;;;;;;2.57;1.57;;;;;;;;;;4996930;28;20187;-51
2022/05/30 13:21:30;;;;;;;1.60;1.50;;;;;;;;;;4983253;28;20708;-51
2022/05/30 13:23:57;;;;;;;1.77;1.53;;;;;;;;;;4983587;28;20213;-50
2022/05/30 13:26:23;;;;;;;3.37;2.00;;;;;;;;;;4978947;28;20523;-50
2022/05/30 13:28:50;;;;;;;2.63;1.83;;;;;;;;;;4988998;28;20513;-51
2022/05/30 13:31:17;;;;;;;2.97;1.60;;;;;;;;;;4999814;28;20417;-51
2022/05/30 13:33:49;;;;;;;1.97;1.70;;;;;;;;;;5005711;28;20248;-49
2022/05/30 13:36:17;;;;;;;3.23;1.97;;;;;;;;;;5004688;28;20330;-50
2022/05/30 13:38:44;;;;;;;4.10;2.20;;;;;;;;;;4988022;28;20218;-49
2022/05/30 13:41:15;;;;;;;2.00;1.80;;;;;;;;;;4984677;28;20193;-50
2022/05/30 13:43:41;;;;;;;2.60;1.47;;;;;;;;;;4973305;28;20206;-50
2022/05/30 13:46:08;;;;;;;2.60;1.97;;;;;;;;;;4986246;28;20166;-49
2022/05/30 13:48:35;;;;;;;2.73;1.50;;;;;;;;;;5006347;28;20577;-49
2022/05/30 13:51:06;;;;;;;3.07;1.63;;;;;;;;;;4983703;28;20174;-49
2022/05/30 13:53:44;;;;;;;3.00;1.50;;;;;;;;;;4984980;28;20649;-49
2022/05/30 13:56:12;;;;;;;1.70;1.60;;;;;;;;;;5004868;28;20683;-49
2022/05/30 13:58:45;;;;;;;2.37;1.50;;;;;;;;;;4984276;28;20217;-50
2022/05/30 14:01:14;;;;;;;2.63;2.37;;;;;;;;;;4999740;28;20186;-50
2022/05/30 14:03:42;;;;;;;2.00;1.80;;;;;;;;;;4987081;28;20230;-51
2022/05/30 14:06:45;;;;;;;1.87;1.47;;;;;;;;;;5016812;28;20219;-49
2022/05/30 14:09:15;;;;;;;1.97;1.50;;;;;;;;;;4935020;28;20195;-50
2022/05/30 14:11:49;;;;;;;2.17;1.60;;;;;;;;;;4983269;28;20258;-49
2022/05/30 14:14:37;;;;;;;3.23;1.70;;;;;;;;;;4986647;28;20202;-49
2022/05/30 14:17:05;;;;;;;1.57;1.43;;;;;;;;;;4987249;28;20183;-49
2022/05/30 14:19:34;;;;;;;3.13;1.80;;;;;;;;;;5003268;28;20187;-50
2022/05/30 14:22:07;;;;;;;2.77;1.70;;;;;;;;;;5001682;28;20183;-50
2022/05/30 14:24:35;;;;;;;1.80;1.60;;;;;;;;;;4985873;28;20202;-50
2022/05/30 14:27:02;;;;;;;2.03;1.70;;;;;;;;;;4977504;28;20219;-51
2022/05/30 14:29:28;;;;;;;2.63;1.80;;;;;;;;;;4965593;28;20263;-52
2022/05/30 14:32:14;;;;;;;1.70;1.60;;;;;;;;;;4992886;28;20174;-51
2022/05/30 14:34:42;;;;;;;2.30;1.87;;;;;;;;;;4980351;28;20273;-49
2022/05/30 14:37:17;;;;;;;2.30;1.57;;;;;;;;;;4988243;28;20193;-51
2022/05/30 14:39:48;;;;;;;1.97;1.83;;;;;;;;;;4996924;28;20248;-51
2022/05/30 14:42:19;;;;;;;3.03;2.10;;;;;;;;;;4987000;28;20269;-51
2022/05/30 14:44:51;;;;;;;3.70;1.70;;;;;;;;;;4969178;28;20202;-51
2022/05/30 14:47:35;;;;;;;2.03;1.60;;;;;;;;;;4981514;28;20182;-51
2022/05/30 14:50:03;;;;;;;1.90;1.60;;;;;;;;;;4971257;28;20190;-51
2022/05/30 14:52:34;;;;;;;3.23;1.83;;;;;;;;;;4978018;28;20190;-50
2022/05/30 14:55:04;;;;;;;2.17;1.73;;;;;;;;;;4987503;28;20273;-51
2022/05/30 14:57:30;;;;;;;4.33;1.70;;;;;;;;;;4993309;28;20179;-51
2022/05/30 14:59:57;;;;;;;1.83;1.70;;;;;;;;;;4998259;28;20699;-51
2022/05/30 15:05:11;;;;;;;5.00;1.80;;;;;;;;;;4997472;28;20181;-49
2022/05/30 15:07:43;;;;;;;2.67;1.70;;;;;;;;;;5001265;28;20258;-50
2022/05/30 15:10:11;;;;;;;4.60;2.00;;;;;;;;;;4983371;28;20207;-48
2022/05/30 15:12:37;;;;;;;2.50;1.73;;;;;;;;;;5018165;28;20228;-49
2022/05/30 15:15:06;;;;;;;2.60;1.63;;;;;;;;;;5004880;28;20185;-50
2022/05/30 15:17:32;;;;;;;4.87;1.83;;;;;;;;;;5020949;28;20516;-51
2022/05/30 15:20:00;;;;;;;6.07;1.80;;;;;;;;;;5006058;28;20182;-49
2022/05/30 15:22:26;;;;;;;2.97;1.60;;;;;;;;;;5007530;28;20605;-49